Irving, New York
Current Conditions -  °F | °C
As of 2:53 AM on Friday 19 Dec 2014 (Local Time) from KDKK Reporting Station
Overcast Overcast  
Wind Chill: 20°   Ceiling: 1200
Heat Index: 29°   Visibility: 10mi
Dew Point: 25°   Wind: 10mph
Humidity: 85%   Direction: 310°NW
Pressure: 30.12"   Gusts: NA
Location:  42.57°N, 79.11°W
Report Text: KDKK 190753Z AUTO 31009KT 10SM OVC012 M02/M04 A3012 RMK AO2 SLP206 I1000 T10171039
Loading
Personal Weather Stations






























Interactive Weather Map New forecast layout! Learn more

10-Day Weather Forecast

Advertisements
Track Severe Weather on mobile